Time;durP1;ratioP1;P1;durP2;ratioP2;P2;SDS_P1;SDS_P2;PMS_P1;PMS_P2;Temp;Humidity;BMP_temperature;BMP_pressure;BME280_temperature;BME280_humidity;BME280_pressure;Samples;Min_cycle;Max_cycle;Signal;HPM_P1;HPM_P2
2022/05/07 00:02:25;;;;;;;9.70;7.13;;;10.60;99.90;;;;;;5013217;28;20089;-80
2022/05/07 00:04:52;;;;;;;10.88;7.03;;;10.50;99.90;;;;;;5013281;28;20100;-78
2022/05/07 00:07:21;;;;;;;9.48;6.78;;;10.40;99.90;;;;;;5013223;28;20136;-80
2022/05/07 00:09:48;;;;;;;10.10;7.30;;;10.40;99.90;;;;;;5013229;28;20133;-80
2022/05/07 00:12:15;;;;;;;9.82;7.10;;;10.30;99.90;;;;;;5012973;28;20149;-79
2022/05/07 00:14:42;;;;;;;9.52;7.20;;;10.30;99.90;;;;;;5013318;28;20148;-80
2022/05/07 00:19:54;;;;;;;10.15;7.35;;;9.90;99.90;;;;;;5013191;28;20543;-78
2022/05/07 00:22:22;;;;;;;9.93;7.07;;;10.20;99.90;;;;;;5013213;28;20482;-80
2022/05/07 00:24:50;;;;;;;11.30;7.68;;;10.10;99.90;;;;;;5013024;28;20141;-81
2022/05/07 00:27:17;;;;;;;9.73;6.88;;;10.10;99.90;;;;;;5013038;28;20129;-80
2022/05/07 00:29:44;;;;;;;9.27;6.80;;;10.10;99.90;;;;;;5012876;28;20049;-81
2022/05/07 00:32:11;;;;;;;10.00;6.85;;;10.10;99.90;;;;;;5012843;28;20088;-79
2022/05/07 00:34:39;;;;;;;9.48;6.50;;;10.00;99.90;;;;;;5012791;28;20045;-80
2022/05/07 00:37:06;;;;;;;10.15;7.10;;;10.10;99.90;;;;;;5012628;28;20133;-80
2022/05/07 00:39:34;;;;;;;10.88;7.20;;;10.10;99.90;;;;;;5012582;28;20100;-80
2022/05/07 00:42:06;;;;;;;9.35;7.05;;;10.00;99.90;;;;;;5012818;28;20126;-79
2022/05/07 00:44:34;;;;;;;9.50;6.88;;;9.60;99.90;;;;;;5012645;28;20125;-78
2022/05/07 00:47:13;;;;;;;12.88;7.90;;;9.40;99.90;;;;;;5012677;28;20073;-80
2022/05/07 00:49:40;;;;;;;10.70;7.60;;;9.40;99.90;;;;;;5012456;28;20137;-82
2022/05/07 00:52:07;;;;;;;9.05;7.03;;;9.20;99.90;;;;;;5012561;28;20092;-81
2022/05/07 00:54:36;;;;;;;10.55;7.43;;;9.30;99.90;;;;;;5012431;28;20429;-79
2022/05/07 00:57:04;;;;;;;11.23;7.70;;;9.30;99.90;;;;;;5012409;28;20137;-79
2022/05/07 00:59:31;;;;;;;10.15;7.03;;;9.20;99.90;;;;;;5012353;28;20522;-79
2022/05/07 01:01:58;;;;;;;11.05;7.68;;;9.40;99.90;;;;;;5014601;28;20141;-80
2022/05/07 01:04:25;;;;;;;10.75;7.88;;;9.50;99.90;;;;;;5019131;28;20095;-81
2022/05/07 01:06:54;;;;;;;12.10;8.45;;;9.60;99.90;;;;;;5019088;28;20089;-79
2022/05/07 01:09:21;;;;;;;13.82;8.65;;;9.70;99.90;;;;;;5019020;28;20554;-80
2022/05/07 01:11:51;;;;;;;11.35;7.90;;;9.70;99.90;;;;;;5010898;28;20136;-80
2022/05/07 01:14:18;;;;;;;11.25;7.55;;;9.70;99.90;;;;;;5018903;28;20153;-79
2022/05/07 01:16:46;;;;;;;10.35;7.15;;;9.80;99.90;;;;;;5018812;28;20488;-79
2022/05/07 01:19:13;;;;;;;10.48;7.35;;;9.80;99.90;;;;;;5018858;28;20566;-79
2022/05/07 01:21:41;;;;;;;9.45;7.03;;;9.70;99.90;;;;;;5018742;28;20559;-79
2022/05/07 01:24:09;;;;;;;10.88;7.28;;;9.70;99.90;;;;;;5018640;28;20128;-79
2022/05/07 01:26:36;;;;;;;10.55;6.90;;;9.60;99.90;;;;;;5018790;28;20587;-80
2022/05/07 01:29:04;;;;;;;10.20;6.63;;;9.70;99.90;;;;;;5018684;28;20133;-80
2022/05/07 01:31:31;;;;;;;9.77;6.97;;;9.60;99.90;;;;;;5018724;28;20049;-79
2022/05/07 01:33:58;;;;;;;10.00;7.28;;;9.50;99.90;;;;;;5018876;28;20137;-77
2022/05/07 01:36:25;;;;;;;10.15;7.13;;;9.50;99.90;;;;;;5018654;28;20137;-78
2022/05/07 01:38:54;;;;;;;10.45;6.78;;;9.60;99.90;;;;;;5018765;28;20550;-81
2022/05/07 01:41:21;;;;;;;10.20;7.40;;;9.60;99.90;;;;;;5018578;28;20117;-78
2022/05/07 01:43:48;;;;;;;10.15;7.05;;;9.70;99.90;;;;;;5018626;28;20084;-82
2022/05/07 01:49:00;;;;;;;10.10;7.47;;;9.50;99.90;;;;;;5018567;28;20056;-81
2022/05/07 01:51:27;;;;;;;10.45;7.80;;;9.60;99.90;;;;;;5018669;28;20140;-79
2022/05/07 01:53:55;;;;;;;10.32;7.43;;;9.60;99.90;;;;;;5018794;28;20125;-80
2022/05/07 01:56:22;;;;;;;10.38;6.80;;;9.50;99.90;;;;;;5017974;28;20045;-80
2022/05/07 01:58:49;;;;;;;8.50;6.85;;;9.50;99.90;;;;;;5018988;28;20128;-80
2022/05/07 02:01:17;;;;;;;9.75;7.28;;;9.50;99.90;;;;;;5019452;28;20338;-80
2022/05/07 02:03:44;;;;;;;10.63;7.30;;;9.50;99.90;;;;;;5019972;28;20046;-80
2022/05/07 02:06:11;;;;;;;11.48;7.70;;;9.30;99.90;;;;;;5018439;28;20128;-78
2022/05/07 02:08:38;;;;;;;11.48;7.55;;;9.10;99.90;;;;;;5018451;28;20077;-78
2022/05/07 02:11:07;;;;;;;9.00;6.78;;;9.10;99.90;;;;;;5018304;28;20129;-80
2022/05/07 02:13:34;;;;;;;9.77;6.85;;;9.30;99.90;;;;;;5015724;28;20133;-79
2022/05/07 02:16:01;;;;;;;8.75;6.80;;;9.20;99.90;;;;;;5015386;28;20133;-80
2022/05/07 02:18:28;;;;;;;9.77;6.88;;;9.30;99.90;;;;;;5015359;28;20081;-79
2022/05/07 02:20:56;;;;;;;10.63;7.38;;;9.10;99.90;;;;;;5015259;28;20125;-80
2022/05/07 02:23:23;;;;;;;10.00;7.10;;;9.10;99.90;;;;;;5015068;28;20136;-79
2022/05/07 02:25:51;;;;;;;9.95;7.22;;;9.00;99.90;;;;;;5015538;28;20464;-77
2022/05/07 02:28:20;;;;;;;11.32;7.63;;;8.90;99.90;;;;;;5015050;28;20140;-79
2022/05/07 02:30:47;;;;;;;10.68;7.28;;;8.80;99.90;;;;;;5015357;28;20050;-79
2022/05/07 02:33:14;;;;;;;10.05;7.03;;;8.60;99.90;;;;;;5015101;28;20078;-79
2022/05/07 02:35:41;;;;;;;9.57;7.10;;;8.50;99.90;;;;;;5015053;28;20486;-80
2022/05/07 02:38:08;;;;;;;11.30;7.07;;;8.60;99.90;;;;;;5014932;28;20189;-80
2022/05/07 02:42:33;;;;;;;12.95;7.78;;;8.70;99.90;;;;;;5014949;28;20132;-80
2022/05/07 02:43:22;;;;;;;10.20;8.05;;;8.60;99.90;;;;;;5014640;28;20046;-80
2022/05/07 02:45:49;;;;;;;10.50;7.63;;;8.20;99.90;;;;;;5014993;28;20046;-79
2022/05/07 02:48:16;;;;;;;11.55;7.55;;;8.50;99.90;;;;;;5014930;28;20458;-79
2022/05/07 02:50:44;;;;;;;11.20;8.10;;;8.60;99.90;;;;;;5015066;28;20511;-81
2022/05/07 02:53:11;;;;;;;12.45;7.53;;;8.70;99.90;;;;;;5015036;28;20146;-80
2022/05/07 02:55:38;;;;;;;10.70;7.03;;;8.80;99.90;;;;;;5014711;28;20472;-79
2022/05/07 02:58:06;;;;;;;10.55;7.53;;;8.90;99.90;;;;;;5014388;28;20141;-79
2022/05/07 03:00:35;;;;;;;11.35;7.43;;;8.90;99.90;;;;;;5014635;28;20048;-80
2022/05/07 03:03:02;;;;;;;9.55;7.13;;;8.80;99.90;;;;;;5014069;28;20051;-78
2022/05/07 03:05:29;;;;;;;9.10;6.30;;;8.90;99.90;;;;;;5014465;28;20137;-80
2022/05/07 03:07:59;;;;;;;9.95;6.57;;;8.90;99.90;;;;;;5014399;28;20072;-80
2022/05/07 03:10:26;;;;;;;9.38;6.70;;;8.80;99.90;;;;;;5014414;28;20046;-80
2022/05/07 03:12:53;;;;;;;9.40;6.10;;;8.80;99.90;;;;;;5014133;28;20225;-80
2022/05/07 03:15:21;;;;;;;8.50;6.07;;;8.70;99.90;;;;;;5014199;28;20190;-80
2022/05/07 03:17:49;;;;;;;9.60;6.30;;;8.70;99.90;;;;;;5006237;28;20579;-80
2022/05/07 03:20:17;;;;;;;9.48;5.72;;;8.60;99.90;;;;;;5014220;28;20077;-81
2022/05/07 03:22:45;;;;;;;10.02;6.07;;;8.50;99.90;;;;;;5014175;28;20046;-78
2022/05/07 03:25:12;;;;;;;9.52;6.28;;;8.60;99.90;;;;;;5013884;28;20191;-80
2022/05/07 03:27:39;;;;;;;9.43;6.32;;;8.60;99.90;;;;;;5014218;28;20166;-80
2022/05/07 03:30:09;;;;;;;7.80;5.90;;;8.40;99.90;;;;;;5014476;28;20464;-80
2022/05/07 03:32:36;;;;;;;9.90;6.03;;;8.40;99.90;;;;;;5013972;28;20547;-80
2022/05/07 03:35:06;;;;;;;9.48;6.15;;;8.50;99.90;;;;;;5013689;28;20128;-81
2022/05/07 03:37:33;;;;;;;8.90;6.30;;;8.40;99.90;;;;;;5013854;28;20140;-81
2022/05/07 03:40:00;;;;;;;8.30;5.93;;;8.50;99.90;;;;;;5013773;28;20137;-81
2022/05/07 03:42:28;;;;;;;8.77;5.80;;;8.60;99.90;;;;;;5013387;28;20132;-80
2022/05/07 03:44:55;;;;;;;8.48;6.35;;;8.60;99.90;;;;;;5013604;28;20050;-81
2022/05/07 03:47:22;;;;;;;8.82;6.32;;;8.60;99.90;;;;;;5013684;28;20042;-80
2022/05/07 03:49:49;;;;;;;11.23;6.80;;;8.60;99.90;;;;;;5013573;28;20518;-80
2022/05/07 03:55:02;;;;;;;9.48;6.28;;;8.50;99.90;;;;;;5013613;28;20057;-80
2022/05/07 03:57:29;;;;;;;8.88;6.30;;;8.30;99.90;;;;;;5013234;28;20093;-80
2022/05/07 03:59:57;;;;;;;8.77;6.00;;;8.40;99.90;;;;;;5013557;28;20125;-81
2022/05/07 04:02:25;;;;;;;9.77;6.45;;;8.30;99.90;;;;;;5013231;28;20054;-79
2022/05/07 04:04:52;;;;;;;9.00;6.10;;;8.30;99.90;;;;;;5013162;28;20133;-81
2022/05/07 04:07:20;;;;;;;9.18;6.32;;;7.90;99.90;;;;;;5013197;28;20056;-79
2022/05/07 04:09:51;;;;;;;8.82;6.63;;;7.60;99.90;;;;;;5013048;28;20137;-80
2022/05/07 04:12:18;;;;;;;8.65;5.97;;;7.80;99.90;;;;;;5013129;28;20765;-81
2022/05/07 04:14:45;;;;;;;8.07;5.60;;;7.90;99.90;;;;;;5013064;28;20141;-79
2022/05/07 04:17:12;;;;;;;8.60;5.38;;;8.10;99.90;;;;;;5012975;28;20081;-81
2022/05/07 04:19:39;;;;;;;7.50;5.43;;;8.20;99.90;;;;;;5013000;28;20132;-79
2022/05/07 04:22:06;;;;;;;9.05;5.95;;;8.20;99.90;;;;;;5012859;28;20492;-81
2022/05/07 04:24:36;;;;;;;8.73;6.07;;;7.90;99.90;;;;;;5012733;28;20092;-79
2022/05/07 04:27:04;;;;;;;9.40;6.10;;;7.70;99.90;;;;;;5012853;28;20042;-80
2022/05/07 04:29:31;;;;;;;7.60;5.15;;;7.60;99.90;;;;;;5012955;28;20249;-80
2022/05/07 04:31:58;;;;;;;8.35;5.80;;;7.70;99.90;;;;;;5012701;28;20136;-81
2022/05/07 04:34:28;;;;;;;7.65;5.50;;;8.10;99.90;;;;;;5012780;28;20136;-80
2022/05/07 04:36:55;;;;;;;7.60;5.57;;;8.10;99.90;;;;;;5011802;28;20115;-79
2022/05/07 04:39:22;;;;;;;8.90;5.80;;;8.30;99.90;;;;;;5012701;28;20081;-81
2022/05/07 04:41:51;;;;;;;8.32;5.65;;;8.40;99.90;;;;;;5012799;28;20089;-81
2022/05/07 04:44:18;;;;;;;8.07;5.72;;;8.40;99.90;;;;;;5012473;28;20088;-80
2022/05/07 04:46:45;;;;;;;9.73;6.25;;;8.40;99.90;;;;;;5012501;28;20554;-80
2022/05/07 04:49:14;;;;;;;10.05;6.38;;;8.30;99.90;;;;;;5012527;28;20046;-80
2022/05/07 04:51:41;;;;;;;10.02;6.20;;;8.20;99.90;;;;;;5012489;28;20053;-81
2022/05/07 04:54:08;;;;;;;8.27;6.32;;;8.40;99.90;;;;;;5012906;28;20140;-81
2022/05/07 04:56:35;;;;;;;10.52;6.55;;;8.30;99.90;;;;;;5012345;28;20137;-81
2022/05/07 04:59:03;;;;;;;9.20;6.05;;;8.00;99.90;;;;;;5012541;28;20551;-80
2022/05/07 05:01:30;;;;;;;10.05;6.22;;;7.90;99.90;;;;;;5001224;28;20085;-80
2022/05/07 05:03:58;;;;;;;8.98;5.85;;;7.90;99.90;;;;;;4992286;28;20133;-80
2022/05/07 05:06:25;;;;;;;9.38;5.90;;;8.00;99.90;;;;;;4993378;28;20141;-81
2022/05/07 05:08:52;;;;;;;9.27;6.18;;;7.90;99.90;;;;;;4992817;28;20141;-80
2022/05/07 05:11:19;;;;;;;8.35;6.28;;;8.00;99.90;;;;;;4992862;28;20137;-81
2022/05/07 05:13:46;;;;;;;8.52;6.38;;;8.20;99.90;;;;;;4992885;28;20134;-79
2022/05/07 05:16:14;;;;;;;9.65;6.47;;;8.30;99.90;;;;;;4994115;28;20145;-80
2022/05/07 05:18:44;;;;;;;11.55;6.80;;;8.30;99.90;;;;;;4993308;28;20133;-81
2022/05/07 05:21:11;;;;;;;10.35;6.88;;;8.30;99.90;;;;;;4994961;28;20222;-81
2022/05/07 05:23:38;;;;;;;9.73;6.97;;;8.30;99.90;;;;;;4993885;28;20050;-78
2022/05/07 05:26:05;;;;;;;12.98;6.78;;;8.40;99.90;;;;;;4993872;28;20137;-81
2022/05/07 05:28:32;;;;;;;10.07;6.93;;;8.40;99.90;;;;;;4994360;28;20152;-79
2022/05/07 05:31:00;;;;;;;9.82;6.78;;;8.50;99.90;;;;;;4994324;28;20051;-80
2022/05/07 05:33:28;;;;;;;9.48;6.95;;;8.50;99.90;;;;;;4994588;28;20065;-80
2022/05/07 05:35:55;;;;;;;11.55;7.15;;;8.50;99.90;;;;;;4993661;28;20142;-81
2022/05/07 05:38:22;;;;;;;11.07;7.55;;;8.60;99.90;;;;;;4993020;28;20137;-79
2022/05/07 05:40:49;;;;;;;10.95;7.22;;;8.70;99.90;;;;;;4992713;28;20137;-80
2022/05/07 05:43:17;;;;;;;11.70;7.50;;;8.70;99.90;;;;;;4992517;28;20588;-80
2022/05/07 05:45:44;;;;;;;14.68;7.28;;;8.70;99.90;;;;;;4992356;28;20050;-80
2022/05/07 05:48:11;;;;;;;9.63;6.80;;;8.80;99.90;;;;;;4993815;28;20148;-79
2022/05/07 05:50:41;;;;;;;9.65;6.38;;;8.90;99.90;;;;;;4996591;28;20143;-79
2022/05/07 05:53:08;;;;;;;9.80;6.82;;;8.90;99.90;;;;;;4996799;28;20110;-81
2022/05/07 05:55:35;;;;;;;9.70;6.93;;;9.00;99.90;;;;;;4996590;28;20134;-80
2022/05/07 05:58:02;;;;;;;9.35;6.45;;;9.20;99.90;;;;;;4996453;28;20575;-80
2022/05/07 06:00:29;;;;;;;9.13;6.43;;;9.20;99.90;;;;;;4997014;28;20484;-79
2022/05/07 06:02:56;;;;;;;8.98;6.60;;;9.20;99.90;;;;;;4996261;28;20062;-79
2022/05/07 06:05:23;;;;;;;8.65;6.30;;;9.30;99.90;;;;;;4996307;28;20134;-80
2022/05/07 06:07:51;;;;;;;9.85;6.75;;;9.40;99.90;;;;;;4996081;28;20230;-80
2022/05/07 06:10:18;;;;;;;11.02;7.57;;;9.40;99.90;;;;;;4995963;28;20579;-81
2022/05/07 06:12:45;;;;;;;9.85;7.38;;;9.40;99.90;;;;;;4997215;28;20089;-80
2022/05/07 06:15:12;;;;;;;11.70;8.00;;;9.50;99.90;;;;;;4997281;28;20469;-80
2022/05/07 06:17:40;;;;;;;10.32;7.63;;;9.40;99.90;;;;;;4996159;28;20085;-80
2022/05/07 06:20:09;;;;;;;9.48;7.00;;;9.60;99.90;;;;;;4995989;28;20153;-78
2022/05/07 06:22:36;;;;;;;9.43;6.60;;;9.60;99.90;;;;;;4976736;28;20148;-80
2022/05/07 06:27:50;;;;;;;11.85;6.85;;;9.80;99.90;;;;;;4995686;28;20065;-79
2022/05/07 06:30:17;;;;;;;11.18;7.78;;;9.80;99.90;;;;;;4995360;28;20142;-79
2022/05/07 06:32:44;;;;;;;12.68;8.93;;;9.90;99.90;;;;;;4995496;28;20050;-79
2022/05/07 06:35:12;;;;;;;12.88;8.88;;;9.90;99.90;;;;;;4995310;28;20046;-78
2022/05/07 06:37:46;;;;;;;12.23;8.55;;;10.00;99.90;;;;;;4995088;28;20152;-80
2022/05/07 06:40:14;;;;;;;12.05;8.45;;;10.10;99.90;;;;;;4996151;28;20081;-79
2022/05/07 06:42:43;;;;;;;13.43;8.02;;;10.10;99.90;;;;;;4995317;28;20477;-79
2022/05/07 06:45:11;;;;;;;11.95;9.02;;;10.20;99.90;;;;;;4995080;28;20538;-78
2022/05/07 06:47:38;;;;;;;13.45;8.57;;;10.20;99.90;;;;;;4995243;28;20093;-80
2022/05/07 06:50:07;;;;;;;11.95;8.23;;;10.30;99.90;;;;;;4995136;28;20163;-78
2022/05/07 06:52:44;;;;;;;11.48;8.35;;;10.40;99.90;;;;;;4995076;28;20117;-78
2022/05/07 06:55:15;;;;;;;11.07;8.57;;;10.50;99.90;;;;;;4995198;28;20050;-80
2022/05/07 06:57:42;;;;;;;11.70;8.60;;;10.50;99.90;;;;;;4994794;28;20050;-78
2022/05/07 07:00:11;;;;;;;11.98;8.43;;;10.50;99.90;;;;;;4994121;28;20140;-80
2022/05/07 07:02:38;;;;;;;11.45;7.78;;;10.70;99.90;;;;;;4994401;28;20555;-81
2022/05/07 07:05:07;;;;;;;10.73;8.25;;;10.70;99.90;;;;;;4994680;28;20133;-80
2022/05/07 07:07:34;;;;;;;12.07;7.88;;;10.80;99.90;;;;;;4994753;28;20054;-80
2022/05/07 07:10:01;;;;;;;13.63;8.38;;;10.80;99.90;;;;;;4994809;28;20050;-80
2022/05/07 07:12:30;;;;;;;11.48;8.40;;;10.90;99.90;;;;;;4994595;28;20093;-80
2022/05/07 07:14:57;;;;;;;11.23;7.60;;;10.90;99.90;;;;;;4994331;28;20089;-80
2022/05/07 07:17:27;;;;;;;12.05;8.20;;;11.00;99.90;;;;;;4994319;28;20125;-80
2022/05/07 07:19:54;;;;;;;11.80;7.93;;;11.10;99.90;;;;;;4994765;28;20137;-78
2022/05/07 07:22:21;;;;;;;10.30;7.57;;;11.20;99.90;;;;;;4994313;28;20081;-79
2022/05/07 07:24:48;;;;;;;11.50;8.23;;;11.30;99.90;;;;;;4986419;28;20090;-81
2022/05/07 07:27:15;;;;;;;11.77;8.32;;;11.30;99.90;;;;;;4994306;28;20125;-80
2022/05/07 07:29:47;;;;;;;11.23;7.78;;;11.40;99.90;;;;;;4994116;28;20129;-80
2022/05/07 07:32:15;;;;;;;9.95;6.68;;;11.50;99.90;;;;;;4994195;28;20047;-80
2022/05/07 07:34:42;;;;;;;10.77;7.15;;;11.60;99.90;;;;;;4994324;28;20054;-79
2022/05/07 07:37:09;;;;;;;9.32;7.53;;;11.70;99.90;;;;;;4994134;28;20090;-81
2022/05/07 07:39:36;;;;;;;9.55;7.07;;;11.70;99.90;;;;;;4993815;28;20133;-80
2022/05/07 07:42:04;;;;;;;10.30;6.82;;;11.80;99.90;;;;;;4993946;28;20571;-79
2022/05/07 07:44:31;;;;;;;10.27;7.30;;;11.80;99.90;;;;;;4994166;28;20508;-81
2022/05/07 07:49:44;;;;;;;9.15;6.78;;;11.90;99.90;;;;;;4994009;28;20416;-79
2022/05/07 07:52:13;;;;;;;10.73;7.30;;;12.10;99.90;;;;;;4993658;28;20165;-78
2022/05/07 07:54:40;;;;;;;10.27;7.88;;;12.20;99.90;;;;;;4993762;28;20061;-79
2022/05/07 07:57:07;;;;;;;10.45;7.70;;;12.20;99.90;;;;;;4994129;28;20502;-80
2022/05/07 07:59:34;;;;;;;9.93;7.28;;;12.30;99.90;;;;;;4993735;28;20085;-80
2022/05/07 08:02:03;;;;;;;10.18;6.95;;;12.30;99.90;;;;;;4993653;28;20134;-80
2022/05/07 08:04:31;;;;;;;10.18;6.90;;;12.40;99.90;;;;;;4993411;28;20129;-80
2022/05/07 08:12:26;;;;;;;11.70;7.22;;;12.60;99.90;;;;;;4992644;28;19929;-80
2022/05/07 08:14:53;;;;;;;12.98;8.02;;;12.70;99.90;;;;;;4993436;28;20082;-81
2022/05/07 08:17:24;;;;;;;10.75;7.63;;;12.80;99.90;;;;;;4993387;28;20089;-80
2022/05/07 08:19:51;;;;;;;10.32;7.80;;;12.90;99.90;;;;;;4985926;28;20105;-79
2022/05/07 08:22:18;;;;;;;9.43;6.60;;;13.00;99.90;;;;;;4993596;28;20130;-80
2022/05/07 08:24:45;;;;;;;14.82;8.90;;;13.20;99.90;;;;;;4993289;28;20109;-80
2022/05/07 08:27:12;;;;;;;11.65;8.15;;;13.10;99.90;;;;;;4993166;28;20137;-80
2022/05/07 08:29:40;;;;;;;13.30;8.98;;;13.20;99.90;;;;;;4993248;28;20144;-80
2022/05/07 08:32:08;;;;;;;13.25;8.57;;;13.20;99.90;;;;;;4993261;28;20469;-80
2022/05/07 08:34:37;;;;;;;10.30;7.70;;;13.40;99.90;;;;;;4993013;28;20129;-77
2022/05/07 08:37:04;;;;;;;11.75;7.60;;;13.40;99.90;;;;;;4993066;28;20046;-80
2022/05/07 08:39:32;;;;;;;10.88;7.90;;;13.40;99.90;;;;;;4993099;28;20085;-80
2022/05/07 08:41:59;;;;;;;9.95;7.15;;;13.50;99.90;;;;;;4993037;28;20467;-81
2022/05/07 08:44:26;;;;;;;10.75;7.35;;;13.60;99.90;;;;;;4992940;28;20559;-80
2022/05/07 08:46:53;;;;;;;10.38;7.82;;;13.60;99.90;;;;;;4992978;28;20053;-79
2022/05/07 08:49:22;;;;;;;11.68;7.53;;;13.60;99.90;;;;;;4993272;28;20290;-77
2022/05/07 08:51:54;;;;;;;10.38;7.85;;;13.70;99.90;;;;;;4993063;28;20133;-78
2022/05/07 08:54:21;;;;;;;13.45;9.23;;;13.70;99.90;;;;;;4992747;28;20138;-79
2022/05/07 08:56:48;;;;;;;12.82;9.70;;;13.70;99.90;;;;;;4985080;28;20133;-80
2022/05/07 08:59:16;;;;;;;10.73;8.55;;;13.70;99.90;;;;;;4992494;28;20520;-80
2022/05/07 09:01:44;;;;;;;10.07;7.32;;;13.90;99.90;;;;;;4992691;28;20082;-81
2022/05/07 09:04:12;;;;;;;10.05;6.82;;;14.00;99.90;;;;;;4993223;28;20062;-81
2022/05/07 09:06:40;;;;;;;9.88;7.47;;;14.20;99.90;;;;;;4992927;28;20459;-79
2022/05/07 09:09:09;;;;;;;9.20;7.00;;;14.20;99.90;;;;;;4993123;28;20134;-80
2022/05/07 09:11:45;;;;;;;11.75;9.25;;;14.40;99.90;;;;;;4993262;28;20133;-80
2022/05/07 09:14:14;;;;;;;11.60;8.18;;;14.30;99.90;;;;;;4992784;28;20047;-80
2022/05/07 09:16:45;;;;;;;11.32;7.57;;;14.40;99.90;;;;;;4992892;28;20117;-81
2022/05/07 09:19:25;;;;;;;13.05;9.10;;;14.40;99.90;;;;;;4992712;28;20078;-79
2022/05/07 09:21:54;;;;;;;11.02;7.15;;;14.50;99.90;;;;;;4992586;28;20125;-77
2022/05/07 09:24:23;;;;;;;13.05;9.65;;;14.60;99.90;;;;;;4996044;28;20058;-80
2022/05/07 09:26:50;;;;;;;13.27;8.27;;;14.60;99.90;;;;;;4997272;28;20110;-80
2022/05/07 09:29:18;;;;;;;10.30;7.28;;;14.70;99.90;;;;;;4997510;28;20058;-78
2022/05/07 09:31:46;;;;;;;9.02;6.65;;;14.80;99.90;;;;;;4996605;28;20053;-79
2022/05/07 09:37:00;;;;;;;10.10;6.65;;;14.80;99.90;;;;;;4996727;28;20050;-79
2022/05/07 09:39:36;;;;;;;10.32;6.85;;;15.00;99.90;;;;;;4996652;28;20081;-79
2022/05/07 09:42:06;;;;;;;8.25;6.40;;;15.00;99.90;;;;;;4996474;28;20598;-79
2022/05/07 09:44:34;;;;;;;10.82;7.93;;;15.10;99.90;;;;;;4996440;28;20057;-80
2022/05/07 09:47:02;;;;;;;10.15;6.97;;;15.10;99.90;;;;;;4996287;28;20132;-79
2022/05/07 09:49:33;;;;;;;8.40;6.40;;;15.20;99.90;;;;;;4996096;28;20141;-78
2022/05/07 09:52:00;;;;;;;8.32;5.75;;;15.30;99.90;;;;;;4996349;28;20050;-79
2022/05/07 09:57:32;;;;;;;7.68;5.53;;;15.50;99.90;;;;;;4995970;28;20061;-81
2022/05/07 10:00:06;;;;;;;9.05;6.13;;;15.60;99.90;;;;;;4995831;28;20109;-79
2022/05/07 10:02:53;;;;;;;8.18;5.25;;;15.60;99.90;;;;;;4995647;28;20506;-77
2022/05/07 10:05:51;;;;;;;6.93;5.05;;;15.80;99.50;;;;;;4995680;28;20496;-80
2022/05/07 10:08:42;;;;;;;7.60;5.10;;;15.90;99.80;;;;;;4989970;28;20511;-79
2022/05/07 10:11:10;;;;;;;7.80;5.38;;;16.00;98.30;;;;;;4995721;28;20552;-78
2022/05/07 10:13:38;;;;;;;7.38;5.63;;;16.30;98.80;;;;;;4995639;28;20567;-79
2022/05/07 10:16:07;;;;;;;11.50;6.55;;;16.20;97.60;;;;;;4995769;28;20137;-81
2022/05/07 10:18:38;;;;;;;7.10;5.00;;;16.20;97.70;;;;;;4995557;28;20051;-80
2022/05/07 10:21:13;;;;;;;8.57;5.72;;;16.20;95.70;;;;;;4995595;28;20050;-81
2022/05/07 10:23:51;;;;;;;6.88;4.47;;;16.20;95.80;;;;;;4995646;28;20129;-81
2022/05/07 10:26:18;;;;;;;7.70;3.67;;;16.10;94.00;;;;;;4995552;28;20046;-79
2022/05/07 10:28:47;;;;;;;5.72;3.55;;;16.30;94.80;;;;;;4995357;28;20415;-80
2022/05/07 10:31:22;;;;;;;5.80;3.60;;;16.40;95.20;;;;;;4995059;28;20046;-80
2022/05/07 10:33:50;;;;;;;7.10;3.78;;;16.40;94.20;;;;;;4987490;28;20046;-81
2022/05/07 10:36:19;;;;;;;6.20;3.90;;;16.60;94.40;;;;;;4994559;28;20082;-80
2022/05/07 10:38:47;;;;;;;9.15;4.40;;;16.70;94.00;;;;;;4995046;28;20126;-79
2022/05/07 10:41:25;;;;;;;7.45;3.97;;;16.70;94.60;;;;;;4995073;28;20046;-83
2022/05/07 10:44:06;;;;;;;5.60;3.63;;;16.70;94.20;;;;;;4995140;28;20046;-80
2022/05/07 10:46:47;;;;;;;6.20;3.40;;;16.60;94.10;;;;;;4995329;28;20120;-79
2022/05/07 10:49:18;;;;;;;4.43;3.10;;;16.80;94.40;;;;;;4995049;28;20129;-81
2022/05/07 10:51:51;;;;;;;5.70;3.47;;;16.90;93.80;;;;;;4995044;28;20105;-81
2022/05/07 10:54:21;;;;;;;4.63;3.20;;;17.00;93.30;;;;;;4995167;28;20050;-78
2022/05/07 10:56:51;;;;;;;6.15;3.80;;;17.10;93.80;;;;;;4994892;28;20058;-81
2022/05/07 10:59:21;;;;;;;5.68;3.67;;;17.10;93.20;;;;;;4994853;28;20505;-81
2022/05/07 11:01:50;;;;;;;5.90;3.63;;;17.10;93.20;;;;;;4994873;28;20047;-81
2022/05/07 11:04:19;;;;;;;5.18;3.10;;;17.20;91.50;;;;;;4994717;28;20550;-80
2022/05/07 11:06:48;;;;;;;4.85;3.13;;;17.30;91.60;;;;;;4994808;28;20046;-80
2022/05/07 11:09:16;;;;;;;7.30;3.65;;;17.40;91.00;;;;;;4994779;28;20077;-81
2022/05/07 11:11:45;;;;;;;5.55;3.45;;;17.40;91.90;;;;;;4994777;28;20046;-82
2022/05/07 11:14:23;;;;;;;4.00;2.60;;;17.50;89.50;;;;;;4994782;28;20109;-80
2022/05/07 11:16:51;;;;;;;5.07;3.47;;;17.60;91.00;;;;;;4995919;28;20385;-78
2022/05/07 11:19:26;;;;;;;4.75;2.80;;;17.60;91.20;;;;;;4995612;28;20129;-78
2022/05/07 11:21:55;;;;;;;5.95;3.50;;;17.70;89.30;;;;;;4998388;28;20073;-78
2022/05/07 11:24:25;;;;;;;8.25;4.72;;;17.70;90.30;;;;;;5013507;28;20046;-77
2022/05/07 11:26:53;;;;;;;6.97;3.78;;;17.70;88.10;;;;;;5013451;28;20080;-79
2022/05/07 11:29:22;;;;;;;5.30;3.30;;;17.60;87.30;;;;;;5014382;28;20455;-78
2022/05/07 11:32:01;;;;;;;5.47;2.90;;;17.80;90.10;;;;;;5014387;28;20129;-79
2022/05/07 11:34:36;;;;;;;5.03;2.83;;;17.80;89.60;;;;;;5014570;28;20074;-78
2022/05/07 11:37:14;;;;;;;6.22;2.88;;;17.80;87.70;;;;;;5012873;28;20144;-79
2022/05/07 11:39:50;;;;;;;5.88;2.83;;;17.90;88.60;;;;;;5012502;28;20125;-77
2022/05/07 11:42:27;;;;;;;5.55;2.80;;;18.00;89.80;;;;;;5013351;28;20559;-80
2022/05/07 11:47:53;;;;;;;4.60;2.55;;;18.10;88.00;;;;;;5010303;28;20088;-82
2022/05/07 11:50:22;;;;;;;4.25;2.40;;;18.20;86.30;;;;;;5014128;28;20050;-85
2022/05/07 11:52:49;;;;;;;5.35;2.53;;;18.40;86.00;;;;;;4987805;28;20112;-83
2022/05/07 11:55:18;;;;;;;4.03;2.45;;;18.40;83.50;;;;;;5011616;28;20045;-90
2022/05/07 11:57:47;;;;;;;4.00;2.20;;;18.60;86.90;;;;;;4997999;28;20054;-85
2022/05/07 12:00:22;;;;;;;4.82;2.67;;;18.70;84.70;;;;;;4998590;28;20092;-90
2022/05/07 12:02:50;;;;;;;;;;;18.60;83.00;;;;;;4988600;28;20085;-81
2022/05/07 12:05:18;;;;;;;5.97;3.15;;;18.70;80.40;;;;;;5007010;28;19980;-80
2022/05/07 12:07:49;;;;;;;5.00;3.10;;;18.60;78.50;;;;;;5011639;28;20412;-81
2022/05/07 12:10:17;;;;;;;6.20;3.35;;;18.60;81.80;;;;;;5013273;28;20052;-81
2022/05/07 12:12:45;;;;;;;5.22;2.60;;;18.60;79.20;;;;;;5012798;28;20057;-80
2022/05/07 12:15:12;;;;;;;6.10;2.60;;;18.70;79.10;;;;;;5012512;28;20073;-79
2022/05/07 12:20:32;;;;;;;4.07;1.98;;;18.70;76.80;;;;;;5010375;28;20054;-81
2022/05/07 12:31:16;;;;;;;3.67;1.90;;;19.10;79.00;;;;;;5013220;28;20173;-81
2022/05/07 12:33:45;;;;;;;2.97;1.75;;;19.20;75.60;;;;;;5013147;28;20073;-79
2022/05/07 12:36:12;;;;;;;3.58;1.73;;;19.20;74.20;;;;;;5013033;28;20080;-80
2022/05/07 12:38:43;;;;;;;5.40;2.75;;;19.30;77.30;;;;;;5011214;28;20046;-83
2022/05/07 12:41:10;;;;;;;4.75;2.30;;;19.30;72.90;;;;;;5004026;28;20068;-84
2022/05/07 12:43:38;;;;;;;5.68;2.40;;;19.30;70.50;;;;;;5010519;28;20049;-82
2022/05/07 12:46:05;;;;;;;3.85;1.80;;;19.50;73.40;;;;;;5010960;28;20415;-83
2022/05/07 12:48:33;;;;;;;4.38;2.13;;;19.60;68.80;;;;;;4998512;28;20054;-83
2022/05/07 12:51:01;;;;;;;4.18;1.90;;;19.70;70.90;;;;;;4999764;28;20041;-81
2022/05/07 12:53:29;;;;;;;4.70;1.90;;;20.00;72.50;;;;;;4993332;28;20054;-90
2022/05/07 12:55:56;;;;;;;5.28;2.00;;;20.10;71.70;;;;;;5022108;28;20416;-88
2022/05/07 12:58:23;;;;;;;2.90;1.70;;;20.40;69.10;;;;;;5011254;28;20077;-84
2022/05/07 13:00:51;;;;;;;4.53;1.98;;;20.40;67.70;;;;;;5009002;28;20161;-75
2022/05/07 13:03:18;;;;;;;4.18;1.80;;;20.60;68.30;;;;;;5002045;28;20181;-76
2022/05/07 13:05:45;;;;;;;4.60;1.70;;;20.60;68.70;;;;;;5010115;28;20076;-76
2022/05/07 13:08:16;;;;;;;4.07;1.98;;;20.80;66.90;;;;;;5008327;28;20141;-77
2022/05/07 13:10:43;;;;;;;3.83;1.80;;;21.20;63.70;;;;;;4996985;28;20053;-78
2022/05/07 13:13:12;;;;;;;3.67;1.70;;;21.50;64.70;;;;;;5009839;28;20086;-76
2022/05/07 13:15:39;;;;;;;4.03;1.98;;;21.20;62.30;;;;;;5009449;28;20058;-76
2022/05/07 13:18:08;;;;;;;3.60;1.73;;;20.80;63.80;;;;;;5007291;28;20470;-74
2022/05/07 13:20:38;;;;;;;2.90;1.70;;;20.90;61.10;;;;;;5006461;28;20149;-86
2022/05/07 13:23:05;;;;;;;3.15;1.58;;;20.60;61.50;;;;;;4989458;28;20054;-85
2022/05/07 13:25:37;;;;;;;4.20;1.90;;;20.80;61.60;;;;;;5008533;28;20148;-86
2022/05/07 13:28:05;;;;;;;4.85;1.80;;;21.00;60.90;;;;;;5009792;28;20050;-89
2022/05/07 13:30:35;;;;;;;3.95;1.77;;;21.40;59.50;;;;;;5010644;28;20100;-86
2022/05/07 13:33:02;;;;;;;4.93;1.70;;;21.30;61.10;;;;;;5010258;28;20137;-88
2022/05/07 13:35:32;;;;;;;4.82;1.75;;;21.70;61.00;;;;;;4990926;28;20471;-85